ADDS METAR Data INFO
IDs: Format: Raw Decoded Include TAF

Data at: 1750 UTC 21 Oct 2017

KAIZ 211656Z AUTO 17016G22KT 10SM SCT030 23/17 A2998 RMK AO2 SLP145 T02330167
KAIZ 211556Z AUTO 18017G22KT 10SM SCT080 23/17 A2999 RMK AO2 SLP148 T02280167
KAIZ 211456Z AUTO 18009KT 10SM OVC075 21/16 A3000 RMK AO2 SLP152 T02060156 51010
KAIZ 211356Z AUTO 17007KT 10SM CLR 19/14 A3000 RMK AO2 SLP153 T01890144
KAIZ 211256Z AUTO 19007KT 10SM CLR 18/13 A2999 RMK AO2 SLP149 T01780133
KAIZ 211156Z AUTO 17009KT 10SM CLR 17/13 A2997 RMK AO2 SLP144 T01720133 10183 20172 55003
KAIZ 211056Z AUTO 18009KT 10SM CLR 18/13 A2997 RMK AO2 SLP141 T01780128
KAIZ 210956Z AUTO 18007KT 10SM CLR 18/13 A2997 RMK AO2 SLP143 T01780128
KAIZ 210856Z AUTO 17009KT 10SM SCT110 18/13 A2998 RMK AO2 SLP146 T01830128 58002
KAIZ 210756Z AUTO 18008G14KT 10SM CLR 18/13 A2999 RMK AO2 SLP148 T01780128
KAIZ 210656Z AUTO 17005KT 10SM CLR 18/13 A2999 RMK AO2 SLP149 T01780133
KAIZ 210556Z AUTO 18007KT 10SM CLR 18/13 A2999 RMK AO2 SLP148 T01780133 10194 20178 402220083 50000
KAIZ 210456Z AUTO 17006KT 10SM CLR 18/13 A2999 RMK AO2 SLP149 T01830133
KAIZ 210356Z AUTO 18008G14KT 10SM CLR 18/14 A2999 RMK AO2 SLP152 T01780139
KAIZ 210256Z AUTO 17012G16KT 10SM CLR 19/14 A2999 RMK AO2 SLP151 T01890144 58005
KAIZ 210156Z AUTO 16007KT 10SM CLR 19/14 A2999 RMK AO2 SLP154 T01940139
KAIZ 210056Z AUTO 16007KT 10SM CLR 19/13 A3000 RMK AO2 SLP156 T01890128
KAIZ 202356Z AUTO 16006KT 10SM CLR 19/12 A3000 RMK AO2 SLP156 60000 T01940122 10222 20194 56011
KAIZ 202256Z AUTO 15007KT 10SM CLR 21/12 A3001 RMK AO2 RAB02E12 SLP157 P0000 T02060122
KAIZ 202156Z AUTO 18004KT 10SM OVC110 21/12 A3003 RMK AO2 SLP166 T02060117
KAIZ 202056Z AUTO 17007KT 10SM CLR 21/11 A3004 RMK AO2 SLP169 T02110106 56025
KAIZ 201956Z AUTO 18008KT 10SM CLR 22/12 A3005 RMK AO2 SLP173 T02220117
KAIZ 201856Z AUTO 16009KT 10SM CLR 22/11 A3008 RMK AO2 SLP179 T02220111
KAIZ 201756Z AUTO 20008KT 10SM CLR 22/11 A3011 RMK AO2 SLP191 T02170106 10222 20094 58022
KAIZ 201656Z AUTO 21009KT 10SM CLR 21/12 A3015 RMK AO2 SLP206 T02060122
KAIZ 201556Z AUTO 19004KT 10SM CLR 18/12 A3017 RMK AO2 SLP212 T01780122
KAIZ 201456Z AUTO 17007KT 10SM CLR 14/11 A3018 RMK AO2 SLP218 T01440111 55003
KAIZ 201356Z AUTO 15005KT 10SM CLR 12/11 A3018 RMK AO2 SLP214 T01220106
KAIZ 201328Z AUTO 15005KT 10SM FEW003 11/10 A3018 RMK AO2
KAIZ 201256Z AUTO 16005KT 10SM CLR 11/09 A3018 RMK AO2 SLP218 T01060094
KAIZ 201156Z AUTO 16003KT 10SM CLR 09/09 A3019 RMK AO2 SLP220 T00940089 10144 20083 51010
KAIZ 201056Z AUTO 00000KT 10SM CLR 09/08 A3019 RMK AO2 SLP219 T00890083
KAIZ 200956Z AUTO 00000KT 10SM CLR 11/09 A3017 RMK AO2 SLP211 T01110094
KAIZ 200856Z AUTO 00000KT 10SM CLR 11/09 A3016 RMK AO2 SLP207 T01110094 51005
KAIZ 200756Z AUTO 16004KT 10SM CLR 12/09 A3016 RMK AO2 SLP205 T01220094
KAIZ 200656Z AUTO 16005KT 10SM CLR 14/09 A3015 RMK AO2 SLP201 T01390094
KAIZ 200556Z AUTO 16006KT 10SM CLR 14/09 A3014 RMK AO2 SLP199 T01440094 10189 20144 402670094 58001